sensor_id;sensor_type;location;lat;lon;timestamp;P1;durP1;ratioP1;P2;durP2;ratioP2
22543;SDS011;11438;52.044;8.716;2024-02-21T00:01:47;22.27;;;9.45;;
22543;SDS011;11438;52.044;8.716;2024-02-21T00:04:12;21.27;;;9.52;;
22543;SDS011;11438;52.044;8.716;2024-02-21T00:06:38;19.92;;;9.27;;
22543;SDS011;11438;52.044;8.716;2024-02-21T00:09:03;18.60;;;9.27;;
22543;SDS011;11438;52.044;8.716;2024-02-21T00:11:29;19.85;;;9.57;;
22543;SDS011;11438;52.044;8.716;2024-02-21T00:13:54;17.65;;;9.38;;
22543;SDS011;11438;52.044;8.716;2024-02-21T00:16:20;21.17;;;10.68;;
22543;SDS011;11438;52.044;8.716;2024-02-21T00:18:46;19.13;;;9.93;;
22543;SDS011;11438;52.044;8.716;2024-02-21T00:21:11;21.77;;;10.20;;
22543;SDS011;11438;52.044;8.716;2024-02-21T00:23:43;16.75;;;10.32;;
22543;SDS011;11438;52.044;8.716;2024-02-21T00:26:12;19.70;;;11.43;;
22543;SDS011;11438;52.044;8.716;2024-02-21T00:28:38;18.10;;;10.30;;
22543;SDS011;11438;52.044;8.716;2024-02-21T00:31:04;21.92;;;11.05;;
22543;SDS011;11438;52.044;8.716;2024-02-21T00:33:30;20.05;;;11.07;;
22543;SDS011;11438;52.044;8.716;2024-02-21T00:35:55;19.05;;;10.85;;
22543;SDS011;11438;52.044;8.716;2024-02-21T00:38:21;18.83;;;10.65;;
22543;SDS011;11438;52.044;8.716;2024-02-21T00:40:46;17.67;;;10.20;;
22543;SDS011;11438;52.044;8.716;2024-02-21T00:43:12;20.05;;;10.48;;
22543;SDS011;11438;52.044;8.716;2024-02-21T00:45:37;19.48;;;10.73;;
22543;SDS011;11438;52.044;8.716;2024-02-21T00:48:03;23.38;;;10.65;;
22543;SDS011;11438;52.044;8.716;2024-02-21T00:50:29;18.95;;;10.85;;
22543;SDS011;11438;52.044;8.716;2024-02-21T00:52:54;19.50;;;10.60;;
22543;SDS011;11438;52.044;8.716;2024-02-21T00:55:20;20.27;;;10.48;;
22543;SDS011;11438;52.044;8.716;2024-02-21T00:57:45;19.73;;;11.27;;
22543;SDS011;11438;52.044;8.716;2024-02-21T01:00:11;20.25;;;10.65;;
22543;SDS011;11438;52.044;8.716;2024-02-21T01:02:37;18.65;;;9.80;;
22543;SDS011;11438;52.044;8.716;2024-02-21T01:05:02;18.45;;;9.85;;
22543;SDS011;11438;52.044;8.716;2024-02-21T01:07:28;21.05;;;10.30;;
22543;SDS011;11438;52.044;8.716;2024-02-21T01:09:54;20.63;;;10.52;;
22543;SDS011;11438;52.044;8.716;2024-02-21T01:12:19;20.17;;;10.20;;
22543;SDS011;11438;52.044;8.716;2024-02-21T01:14:45;18.58;;;9.15;;
22543;SDS011;11438;52.044;8.716;2024-02-21T01:17:14;17.25;;;9.30;;
22543;SDS011;11438;52.044;8.716;2024-02-21T01:19:40;18.95;;;10.23;;
22543;SDS011;11438;52.044;8.716;2024-02-21T01:22:05;22.92;;;10.20;;
22543;SDS011;11438;52.044;8.716;2024-02-21T01:24:31;24.02;;;10.07;;
22543;SDS011;11438;52.044;8.716;2024-02-21T01:26:56;20.30;;;9.55;;
22543;SDS011;11438;52.044;8.716;2024-02-21T01:29:21;18.63;;;9.65;;
22543;SDS011;11438;52.044;8.716;2024-02-21T01:31:47;20.98;;;10.15;;
22543;SDS011;11438;52.044;8.716;2024-02-21T01:34:13;19.58;;;10.45;;
22543;SDS011;11438;52.044;8.716;2024-02-21T01:36:38;18.90;;;9.88;;
22543;SDS011;11438;52.044;8.716;2024-02-21T01:39:04;22.50;;;10.65;;
22543;SDS011;11438;52.044;8.716;2024-02-21T01:41:30;19.80;;;9.45;;
22543;SDS011;11438;52.044;8.716;2024-02-21T01:43:56;20.48;;;10.05;;
22543;SDS011;11438;52.044;8.716;2024-02-21T01:46:22;19.45;;;10.13;;
22543;SDS011;11438;52.044;8.716;2024-02-21T01:48:48;24.80;;;10.13;;
22543;SDS011;11438;52.044;8.716;2024-02-21T01:51:14;23.13;;;10.13;;
22543;SDS011;11438;52.044;8.716;2024-02-21T01:53:42;21.67;;;10.57;;
22543;SDS011;11438;52.044;8.716;2024-02-21T01:56:09;20.77;;;11.07;;
22543;SDS011;11438;52.044;8.716;2024-02-21T01:58:36;20.85;;;9.82;;
22543;SDS011;11438;52.044;8.716;2024-02-21T02:01:04;18.25;;;9.77;;
22543;SDS011;11438;52.044;8.716;2024-02-21T02:03:29;21.15;;;10.63;;
22543;SDS011;11438;52.044;8.716;2024-02-21T02:05:56;20.27;;;9.48;;
22543;SDS011;11438;52.044;8.716;2024-02-21T02:08:21;20.33;;;9.77;;
22543;SDS011;11438;52.044;8.716;2024-02-21T02:10:47;23.02;;;9.38;;
22543;SDS011;11438;52.044;8.716;2024-02-21T02:13:13;19.92;;;10.48;;
22543;SDS011;11438;52.044;8.716;2024-02-21T02:15:39;25.27;;;10.40;;
22543;SDS011;11438;52.044;8.716;2024-02-21T02:18:12;18.13;;;9.73;;
22543;SDS011;11438;52.044;8.716;2024-02-21T02:20:39;18.08;;;9.25;;
22543;SDS011;11438;52.044;8.716;2024-02-21T02:25:55;24.80;;;10.32;;
22543;SDS011;11438;52.044;8.716;2024-02-21T02:28:21;18.77;;;9.85;;
22543;SDS011;11438;52.044;8.716;2024-02-21T02:30:47;21.45;;;10.23;;
22543;SDS011;11438;52.044;8.716;2024-02-21T02:33:13;18.50;;;9.38;;
22543;SDS011;11438;52.044;8.716;2024-02-21T02:35:38;22.25;;;9.45;;
22543;SDS011;11438;52.044;8.716;2024-02-21T02:38:04;21.85;;;10.10;;
22543;SDS011;11438;52.044;8.716;2024-02-21T02:40:30;18.35;;;9.48;;
22543;SDS011;11438;52.044;8.716;2024-02-21T02:42:56;19.80;;;9.77;;
22543;SDS011;11438;52.044;8.716;2024-02-21T02:45:22;21.02;;;10.65;;
22543;SDS011;11438;52.044;8.716;2024-02-21T02:47:49;19.40;;;10.65;;
22543;SDS011;11438;52.044;8.716;2024-02-21T02:50:14;18.80;;;10.13;;
22543;SDS011;11438;52.044;8.716;2024-02-21T02:52:40;18.48;;;10.10;;
22543;SDS011;11438;52.044;8.716;2024-02-21T02:55:05;23.05;;;10.75;;
22543;SDS011;11438;52.044;8.716;2024-02-21T02:57:32;20.30;;;9.32;;
22543;SDS011;11438;52.044;8.716;2024-02-21T02:59:57;22.70;;;10.90;;
22543;SDS011;11438;52.044;8.716;2024-02-21T03:02:23;15.40;;;9.15;;
22543;SDS011;11438;52.044;8.716;2024-02-21T03:04:49;19.55;;;9.93;;
22543;SDS011;11438;52.044;8.716;2024-02-21T03:07:14;20.95;;;10.75;;
22543;SDS011;11438;52.044;8.716;2024-02-21T03:09:41;18.30;;;9.73;;
22543;SDS011;11438;52.044;8.716;2024-02-21T03:12:08;21.38;;;10.05;;
22543;SDS011;11438;52.044;8.716;2024-02-21T03:14:34;18.35;;;8.85;;
22543;SDS011;11438;52.044;8.716;2024-02-21T03:17:00;16.70;;;9.93;;
22543;SDS011;11438;52.044;8.716;2024-02-21T03:19:26;19.13;;;8.90;;
22543;SDS011;11438;52.044;8.716;2024-02-21T03:21:52;16.77;;;8.73;;
22543;SDS011;11438;52.044;8.716;2024-02-21T03:24:18;18.10;;;8.88;;
22543;SDS011;11438;52.044;8.716;2024-02-21T03:26:44;19.90;;;9.50;;
22543;SDS011;11438;52.044;8.716;2024-02-21T03:29:12;21.17;;;9.73;;
22543;SDS011;11438;52.044;8.716;2024-02-21T03:31:39;16.25;;;9.10;;
22543;SDS011;11438;52.044;8.716;2024-02-21T03:34:04;16.00;;;9.23;;
22543;SDS011;11438;52.044;8.716;2024-02-21T03:36:30;14.88;;;8.75;;
22543;SDS011;11438;52.044;8.716;2024-02-21T03:38:56;18.15;;;9.15;;
22543;SDS011;11438;52.044;8.716;2024-02-21T03:41:21;17.77;;;9.43;;
22543;SDS011;11438;52.044;8.716;2024-02-21T03:43:47;18.02;;;8.65;;
22543;SDS011;11438;52.044;8.716;2024-02-21T03:46:12;18.95;;;8.88;;
22543;SDS011;11438;52.044;8.716;2024-02-21T03:48:38;17.65;;;9.05;;
22543;SDS011;11438;52.044;8.716;2024-02-21T03:51:03;16.73;;;8.98;;
22543;SDS011;11438;52.044;8.716;2024-02-21T03:53:29;18.55;;;9.30;;
22543;SDS011;11438;52.044;8.716;2024-02-21T03:55:55;17.33;;;8.52;;
22543;SDS011;11438;52.044;8.716;2024-02-21T03:58:21;15.13;;;8.15;;
22543;SDS011;11438;52.044;8.716;2024-02-21T04:00:47;18.60;;;8.73;;
22543;SDS011;11438;52.044;8.716;2024-02-21T04:03:12;19.70;;;9.35;;
22543;SDS011;11438;52.044;8.716;2024-02-21T04:05:38;15.23;;;8.48;;
22543;SDS011;11438;52.044;8.716;2024-02-21T04:08:04;19.23;;;9.20;;
22543;SDS011;11438;52.044;8.716;2024-02-21T04:10:30;18.77;;;8.43;;
22543;SDS011;11438;52.044;8.716;2024-02-21T04:12:55;16.88;;;8.60;;
22543;SDS011;11438;52.044;8.716;2024-02-21T04:15:21;17.77;;;8.40;;
22543;SDS011;11438;52.044;8.716;2024-02-21T04:17:46;15.95;;;8.73;;
22543;SDS011;11438;52.044;8.716;2024-02-21T04:20:13;19.42;;;8.45;;
22543;SDS011;11438;52.044;8.716;2024-02-21T04:22:40;15.07;;;7.90;;
22543;SDS011;11438;52.044;8.716;2024-02-21T04:25:07;16.13;;;8.63;;
22543;SDS011;11438;52.044;8.716;2024-02-21T04:27:33;17.30;;;8.45;;
22543;SDS011;11438;52.044;8.716;2024-02-21T04:29:59;14.40;;;8.35;;
22543;SDS011;11438;52.044;8.716;2024-02-21T04:32:24;17.42;;;8.77;;
22543;SDS011;11438;52.044;8.716;2024-02-21T04:34:52;16.63;;;8.30;;
22543;SDS011;11438;52.044;8.716;2024-02-21T04:37:17;14.95;;;8.73;;
22543;SDS011;11438;52.044;8.716;2024-02-21T04:39:43;20.33;;;9.00;;
22543;SDS011;11438;52.044;8.716;2024-02-21T04:42:09;18.05;;;8.80;;
22543;SDS011;11438;52.044;8.716;2024-02-21T04:44:34;17.58;;;9.00;;
22543;SDS011;11438;52.044;8.716;2024-02-21T04:47:00;19.38;;;8.93;;
22543;SDS011;11438;52.044;8.716;2024-02-21T04:49:26;14.98;;;9.13;;
22543;SDS011;11438;52.044;8.716;2024-02-21T04:51:51;18.27;;;9.40;;
22543;SDS011;11438;52.044;8.716;2024-02-21T04:54:17;18.45;;;9.85;;
22543;SDS011;11438;52.044;8.716;2024-02-21T04:56:42;15.18;;;9.45;;
22543;SDS011;11438;52.044;8.716;2024-02-21T04:59:08;17.85;;;9.05;;
22543;SDS011;11438;52.044;8.716;2024-02-21T05:01:33;18.77;;;9.00;;
22543;SDS011;11438;52.044;8.716;2024-02-21T05:03:59;20.10;;;10.05;;
22543;SDS011;11438;52.044;8.716;2024-02-21T05:06:24;22.00;;;10.77;;
22543;SDS011;11438;52.044;8.716;2024-02-21T05:08:49;17.67;;;9.23;;
22543;SDS011;11438;52.044;8.716;2024-02-21T05:11:15;16.00;;;9.27;;
22543;SDS011;11438;52.044;8.716;2024-02-21T05:13:41;15.80;;;9.18;;
22543;SDS011;11438;52.044;8.716;2024-02-21T05:16:06;19.10;;;9.80;;
22543;SDS011;11438;52.044;8.716;2024-02-21T05:18:32;17.23;;;8.98;;
22543;SDS011;11438;52.044;8.716;2024-02-21T05:20:58;19.58;;;9.90;;
22543;SDS011;11438;52.044;8.716;2024-02-21T05:23:24;18.90;;;10.40;;
22543;SDS011;11438;52.044;8.716;2024-02-21T05:25:50;17.15;;;9.98;;
22543;SDS011;11438;52.044;8.716;2024-02-21T05:28:16;17.65;;;9.40;;
22543;SDS011;11438;52.044;8.716;2024-02-21T05:30:42;18.27;;;9.93;;
22543;SDS011;11438;52.044;8.716;2024-02-21T05:33:08;19.88;;;9.77;;
22543;SDS011;11438;52.044;8.716;2024-02-21T05:35:34;17.23;;;9.50;;
22543;SDS011;11438;52.044;8.716;2024-02-21T05:37:59;18.90;;;8.75;;
22543;SDS011;11438;52.044;8.716;2024-02-21T05:40:25;19.00;;;9.13;;
22543;SDS011;11438;52.044;8.716;2024-02-21T05:42:51;16.95;;;9.15;;
22543;SDS011;11438;52.044;8.716;2024-02-21T05:45:17;14.65;;;9.00;;
22543;SDS011;11438;52.044;8.716;2024-02-21T05:47:43;17.70;;;8.48;;
22543;SDS011;11438;52.044;8.716;2024-02-21T05:50:09;16.13;;;8.73;;
22543;SDS011;11438;52.044;8.716;2024-02-21T05:52:35;16.90;;;8.35;;
22543;SDS011;11438;52.044;8.716;2024-02-21T05:55:00;17.50;;;8.48;;
22543;SDS011;11438;52.044;8.716;2024-02-21T05:57:26;17.23;;;8.63;;
22543;SDS011;11438;52.044;8.716;2024-02-21T05:59:51;16.27;;;9.20;;
22543;SDS011;11438;52.044;8.716;2024-02-21T06:02:17;19.60;;;8.77;;
22543;SDS011;11438;52.044;8.716;2024-02-21T06:04:42;16.20;;;8.60;;
22543;SDS011;11438;52.044;8.716;2024-02-21T06:07:09;14.60;;;8.55;;
22543;SDS011;11438;52.044;8.716;2024-02-21T06:09:34;17.52;;;7.88;;
22543;SDS011;11438;52.044;8.716;2024-02-21T06:12:00;14.25;;;8.63;;
22543;SDS011;11438;52.044;8.716;2024-02-21T06:14:25;15.80;;;8.63;;
22543;SDS011;11438;52.044;8.716;2024-02-21T06:16:51;15.63;;;7.82;;
22543;SDS011;11438;52.044;8.716;2024-02-21T06:19:16;15.35;;;8.15;;
22543;SDS011;11438;52.044;8.716;2024-02-21T06:21:42;15.93;;;9.15;;
22543;SDS011;11438;52.044;8.716;2024-02-21T06:24:07;15.10;;;8.07;;
22543;SDS011;11438;52.044;8.716;2024-02-21T06:26:33;19.80;;;8.55;;
22543;SDS011;11438;52.044;8.716;2024-02-21T06:28:58;15.73;;;8.57;;
22543;SDS011;11438;52.044;8.716;2024-02-21T06:31:27;13.55;;;8.90;;
22543;SDS011;11438;52.044;8.716;2024-02-21T06:33:53;16.98;;;9.00;;
22543;SDS011;11438;52.044;8.716;2024-02-21T06:36:18;16.80;;;8.63;;
22543;SDS011;11438;52.044;8.716;2024-02-21T06:38:44;16.80;;;9.15;;
22543;SDS011;11438;52.044;8.716;2024-02-21T06:41:16;18.63;;;9.32;;
22543;SDS011;11438;52.044;8.716;2024-02-21T06:43:44;16.10;;;8.75;;
22543;SDS011;11438;52.044;8.716;2024-02-21T06:46:10;17.23;;;8.68;;
22543;SDS011;11438;52.044;8.716;2024-02-21T06:48:36;15.50;;;8.68;;
22543;SDS011;11438;52.044;8.716;2024-02-21T06:51:02;18.92;;;9.23;;
22543;SDS011;11438;52.044;8.716;2024-02-21T06:53:28;17.65;;;8.43;;
22543;SDS011;11438;52.044;8.716;2024-02-21T06:55:53;14.93;;;7.72;;
22543;SDS011;11438;52.044;8.716;2024-02-21T06:58:19;11.95;;;7.28;;
22543;SDS011;11438;52.044;8.716;2024-02-21T07:00:44;15.50;;;7.45;;
22543;SDS011;11438;52.044;8.716;2024-02-21T07:03:10;16.10;;;7.78;;
22543;SDS011;11438;52.044;8.716;2024-02-21T07:05:35;12.23;;;6.53;;
22543;SDS011;11438;52.044;8.716;2024-02-21T07:08:01;13.43;;;6.95;;
22543;SDS011;11438;52.044;8.716;2024-02-21T07:10:28;14.55;;;6.25;;
22543;SDS011;11438;52.044;8.716;2024-02-21T07:12:54;12.65;;;6.97;;
22543;SDS011;11438;52.044;8.716;2024-02-21T07:15:20;13.68;;;6.20;;
22543;SDS011;11438;52.044;8.716;2024-02-21T07:17:45;15.52;;;6.30;;
22543;SDS011;11438;52.044;8.716;2024-02-21T07:20:11;11.60;;;5.78;;
22543;SDS011;11438;52.044;8.716;2024-02-21T07:22:36;15.40;;;6.18;;
22543;SDS011;11438;52.044;8.716;2024-02-21T07:25:02;14.63;;;5.35;;
22543;SDS011;11438;52.044;8.716;2024-02-21T07:27:28;12.63;;;6.28;;
22543;SDS011;11438;52.044;8.716;2024-02-21T07:29:56;10.80;;;5.47;;
22543;SDS011;11438;52.044;8.716;2024-02-21T07:32:22;10.73;;;5.25;;
22543;SDS011;11438;52.044;8.716;2024-02-21T07:34:47;15.10;;;6.10;;
22543;SDS011;11438;52.044;8.716;2024-02-21T07:37:12;12.60;;;5.70;;
22543;SDS011;11438;52.044;8.716;2024-02-21T07:39:38;11.38;;;5.55;;
22543;SDS011;11438;52.044;8.716;2024-02-21T07:42:04;11.95;;;4.80;;
22543;SDS011;11438;52.044;8.716;2024-02-21T07:44:29;11.43;;;5.40;;
22543;SDS011;11438;52.044;8.716;2024-02-21T07:46:56;10.77;;;5.30;;
22543;SDS011;11438;52.044;8.716;2024-02-21T07:49:22;11.63;;;5.13;;
22543;SDS011;11438;52.044;8.716;2024-02-21T07:51:47;14.80;;;5.20;;
22543;SDS011;11438;52.044;8.716;2024-02-21T07:54:13;10.18;;;5.40;;
22543;SDS011;11438;52.044;8.716;2024-02-21T07:56:39;11.82;;;5.10;;
22543;SDS011;11438;52.044;8.716;2024-02-21T07:59:04;17.08;;;6.22;;
22543;SDS011;11438;52.044;8.716;2024-02-21T08:01:30;11.38;;;4.93;;
22543;SDS011;11438;52.044;8.716;2024-02-21T08:03:55;10.23;;;5.20;;
22543;SDS011;11438;52.044;8.716;2024-02-21T08:06:21;11.07;;;5.45;;
22543;SDS011;11438;52.044;8.716;2024-02-21T08:08:47;12.85;;;5.40;;
22543;SDS011;11438;52.044;8.716;2024-02-21T08:11:12;11.25;;;5.03;;
22543;SDS011;11438;52.044;8.716;2024-02-21T08:13:38;8.88;;;4.75;;
22543;SDS011;11438;52.044;8.716;2024-02-21T08:16:03;10.05;;;5.47;;
22543;SDS011;11438;52.044;8.716;2024-02-21T08:18:29;10.88;;;4.65;;
22543;SDS011;11438;52.044;8.716;2024-02-21T08:20:54;12.95;;;4.72;;
22543;SDS011;11438;52.044;8.716;2024-02-21T08:23:23;9.10;;;4.65;;
22543;SDS011;11438;52.044;8.716;2024-02-21T08:25:49;12.85;;;5.18;;
22543;SDS011;11438;52.044;8.716;2024-02-21T08:28:14;11.25;;;4.82;;
22543;SDS011;11438;52.044;8.716;2024-02-21T08:30:40;9.40;;;4.82;;
22543;SDS011;11438;52.044;8.716;2024-02-21T08:33:09;9.15;;;4.40;;
22543;SDS011;11438;52.044;8.716;2024-02-21T08:35:34;10.50;;;4.47;;
22543;SDS011;11438;52.044;8.716;2024-02-21T08:38:00;9.10;;;4.35;;
22543;SDS011;11438;52.044;8.716;2024-02-21T08:40:25;11.27;;;4.90;;
22543;SDS011;11438;52.044;8.716;2024-02-21T08:42:51;10.23;;;4.10;;
22543;SDS011;11438;52.044;8.716;2024-02-21T08:45:16;10.40;;;4.45;;
22543;SDS011;11438;52.044;8.716;2024-02-21T08:47:43;9.93;;;4.22;;
22543;SDS011;11438;52.044;8.716;2024-02-21T08:50:09;8.63;;;4.05;;
22543;SDS011;11438;52.044;8.716;2024-02-21T08:52:35;8.93;;;4.30;;
22543;SDS011;11438;52.044;8.716;2024-02-21T08:55:00;10.02;;;4.38;;
22543;SDS011;11438;52.044;8.716;2024-02-21T08:57:26;11.73;;;4.07;;
22543;SDS011;11438;52.044;8.716;2024-02-21T08:59:52;10.10;;;4.40;;
22543;SDS011;11438;52.044;8.716;2024-02-21T09:02:17;8.13;;;4.43;;
22543;SDS011;11438;52.044;8.716;2024-02-21T09:04:43;9.73;;;4.10;;
22543;SDS011;11438;52.044;8.716;2024-02-21T09:07:09;10.90;;;4.18;;
22543;SDS011;11438;52.044;8.716;2024-02-21T09:09:35;12.02;;;3.83;;
22543;SDS011;11438;52.044;8.716;2024-02-21T09:12:00;6.97;;;4.00;;
22543;SDS011;11438;52.044;8.716;2024-02-21T09:14:30;6.47;;;3.47;;
22543;SDS011;11438;52.044;8.716;2024-02-21T09:16:57;10.13;;;3.63;;
22543;SDS011;11438;52.044;8.716;2024-02-21T09:19:22;7.18;;;3.53;;
22543;SDS011;11438;52.044;8.716;2024-02-21T09:21:47;6.95;;;3.25;;
22543;SDS011;11438;52.044;8.716;2024-02-21T09:24:14;8.27;;;3.53;;
22543;SDS011;11438;52.044;8.716;2024-02-21T09:26:39;7.38;;;3.30;;
22543;SDS011;11438;52.044;8.716;2024-02-21T09:29:04;9.82;;;3.50;;
22543;SDS011;11438;52.044;8.716;2024-02-21T09:31:30;8.05;;;3.17;;
22543;SDS011;11438;52.044;8.716;2024-02-21T09:33:55;7.53;;;3.83;;
22543;SDS011;11438;52.044;8.716;2024-02-21T09:36:21;7.43;;;3.17;;
22543;SDS011;11438;52.044;8.716;2024-02-21T09:38:47;7.40;;;2.92;;
22543;SDS011;11438;52.044;8.716;2024-02-21T09:41:18;10.48;;;3.63;;
22543;SDS011;11438;52.044;8.716;2024-02-21T09:43:50;7.53;;;3.30;;
22543;SDS011;11438;52.044;8.716;2024-02-21T09:46:18;6.72;;;3.20;;
22543;SDS011;11438;52.044;8.716;2024-02-21T09:51:54;8.77;;;3.53;;
22543;SDS011;11438;52.044;8.716;2024-02-21T09:54:22;7.03;;;3.13;;
22543;SDS011;11438;52.044;8.716;2024-02-21T09:56:48;7.63;;;3.00;;
22543;SDS011;11438;52.044;8.716;2024-02-21T09:59:14;7.88;;;3.13;;
22543;SDS011;11438;52.044;8.716;2024-02-21T10:01:41;6.20;;;2.88;;
22543;SDS011;11438;52.044;8.716;2024-02-21T10:04:08;10.88;;;3.00;;
22543;SDS011;11438;52.044;8.716;2024-02-21T10:06:34;7.95;;;3.03;;
22543;SDS011;11438;52.044;8.716;2024-02-21T10:08:59;5.43;;;2.70;;
22543;SDS011;11438;52.044;8.716;2024-02-21T10:11:25;5.97;;;2.90;;
22543;SDS011;11438;52.044;8.716;2024-02-21T10:13:51;4.60;;;2.70;;
22543;SDS011;11438;52.044;8.716;2024-02-21T10:16:28;7.28;;;2.78;;
22543;SDS011;11438;52.044;8.716;2024-02-21T10:18:54;4.78;;;2.30;;
22543;SDS011;11438;52.044;8.716;2024-02-21T10:21:19;3.85;;;2.38;;
22543;SDS011;11438;52.044;8.716;2024-02-21T10:23:46;5.10;;;2.50;;
22543;SDS011;11438;52.044;8.716;2024-02-21T10:26:16;4.88;;;2.50;;
22543;SDS011;11438;52.044;8.716;2024-02-21T10:28:46;7.15;;;2.50;;
22543;SDS011;11438;52.044;8.716;2024-02-21T10:31:26;7.80;;;2.92;;
22543;SDS011;11438;52.044;8.716;2024-02-21T10:33:55;5.38;;;2.50;;
22543;SDS011;11438;52.044;8.716;2024-02-21T10:36:24;5.43;;;2.60;;
22543;SDS011;11438;52.044;8.716;2024-02-21T10:38:50;7.78;;;3.13;;
22543;SDS011;11438;52.044;8.716;2024-02-21T10:41:16;7.05;;;3.40;;
22543;SDS011;11438;52.044;8.716;2024-02-21T10:43:46;5.30;;;2.80;;
22543;SDS011;11438;52.044;8.716;2024-02-21T10:46:18;6.80;;;2.95;;
22543;SDS011;11438;52.044;8.716;2024-02-21T10:48:44;6.75;;;3.58;;
22543;SDS011;11438;52.044;8.716;2024-02-21T10:51:19;6.93;;;3.42;;
22543;SDS011;11438;52.044;8.716;2024-02-21T10:56:34;6.03;;;3.90;;
22543;SDS011;11438;52.044;8.716;2024-02-21T10:59:04;7.95;;;3.80;;
22543;SDS011;11438;52.044;8.716;2024-02-21T11:01:30;6.90;;;3.92;;
22543;SDS011;11438;52.044;8.716;2024-02-21T11:03:58;8.75;;;4.50;;
22543;SDS011;11438;52.044;8.716;2024-02-21T11:06:26;9.57;;;4.80;;
22543;SDS011;11438;52.044;8.716;2024-02-21T11:09:01;8.00;;;4.53;;
22543;SDS011;11438;52.044;8.716;2024-02-21T11:14:33;9.52;;;5.18;;
22543;SDS011;11438;52.044;8.716;2024-02-21T11:16:53;9.27;;;4.65;;
22543;SDS011;11438;52.044;8.716;2024-02-21T11:19:19;10.13;;;5.15;;
22543;SDS011;11438;52.044;8.716;2024-02-21T11:21:46;9.02;;;5.47;;
22543;SDS011;11438;52.044;8.716;2024-02-21T11:24:13;12.10;;;5.28;;
22543;SDS011;11438;52.044;8.716;2024-02-21T11:26:39;11.57;;;5.57;;
22543;SDS011;11438;52.044;8.716;2024-02-21T11:29:07;13.68;;;5.70;;
22543;SDS011;11438;52.044;8.716;2024-02-21T11:31:38;10.88;;;5.55;;
22543;SDS011;11438;52.044;8.716;2024-02-21T11:34:09;13.50;;;5.32;;
22543;SDS011;11438;52.044;8.716;2024-02-21T11:36:35;11.90;;;5.60;;
22543;SDS011;11438;52.044;8.716;2024-02-21T11:39:10;9.13;;;5.28;;
22543;SDS011;11438;52.044;8.716;2024-02-21T11:41:36;8.60;;;4.93;;
22543;SDS011;11438;52.044;8.716;2024-02-21T11:44:01;10.05;;;4.97;;
22543;SDS011;11438;52.044;8.716;2024-02-21T11:46:27;8.57;;;4.95;;
22543;SDS011;11438;52.044;8.716;2024-02-21T11:48:53;9.75;;;4.97;;
22543;SDS011;11438;52.044;8.716;2024-02-21T11:51:24;8.70;;;4.68;;
22543;SDS011;11438;52.044;8.716;2024-02-21T11:53:51;12.63;;;5.35;;
22543;SDS011;11438;52.044;8.716;2024-02-21T11:56:17;10.32;;;4.85;;
22543;SDS011;11438;52.044;8.716;2024-02-21T11:58:44;7.93;;;4.65;;
22543;SDS011;11438;52.044;8.716;2024-02-21T12:01:10;9.48;;;4.88;;
22543;SDS011;11438;52.044;8.716;2024-02-21T12:03:36;7.20;;;4.22;;
22543;SDS011;11438;52.044;8.716;2024-02-21T12:06:02;9.02;;;4.13;;
22543;SDS011;11438;52.044;8.716;2024-02-21T12:08:28;11.65;;;4.03;;
22543;SDS011;11438;52.044;8.716;2024-02-21T12:11:15;6.57;;;3.88;;
22543;SDS011;11438;52.044;8.716;2024-02-21T12:13:59;6.75;;;3.83;;
22543;SDS011;11438;52.044;8.716;2024-02-21T12:16:27;10.20;;;4.03;;
22543;SDS011;11438;52.044;8.716;2024-02-21T12:18:54;8.15;;;3.50;;
22543;SDS011;11438;52.044;8.716;2024-02-21T12:21:23;6.80;;;3.50;;
22543;SDS011;11438;52.044;8.716;2024-02-21T12:23:49;4.70;;;2.70;;
22543;SDS011;11438;52.044;8.716;2024-02-21T12:26:14;5.88;;;2.70;;
22543;SDS011;11438;52.044;8.716;2024-02-21T12:28:40;7.20;;;2.63;;
22543;SDS011;11438;52.044;8.716;2024-02-21T12:31:05;5.13;;;2.55;;
22543;SDS011;11438;52.044;8.716;2024-02-21T12:33:31;3.72;;;2.08;;
22543;SDS011;11438;52.044;8.716;2024-02-21T12:35:58;5.85;;;2.20;;
22543;SDS011;11438;52.044;8.716;2024-02-21T12:38:23;4.50;;;2.25;;
22543;SDS011;11438;52.044;8.716;2024-02-21T12:40:49;5.15;;;2.22;;
22543;SDS011;11438;52.044;8.716;2024-02-21T12:43:14;5.28;;;2.13;;
22543;SDS011;11438;52.044;8.716;2024-02-21T12:45:40;6.30;;;2.08;;
22543;SDS011;11438;52.044;8.716;2024-02-21T12:48:05;5.47;;;1.95;;
22543;SDS011;11438;52.044;8.716;2024-02-21T12:50:31;6.90;;;2.08;;
22543;SDS011;11438;52.044;8.716;2024-02-21T12:52:56;3.65;;;1.90;;
22543;SDS011;11438;52.044;8.716;2024-02-21T12:55:23;7.10;;;1.90;;
22543;SDS011;11438;52.044;8.716;2024-02-21T12:57:49;5.07;;;1.83;;
22543;SDS011;11438;52.044;8.716;2024-02-21T13:00:14;5.90;;;2.33;;
22543;SDS011;11438;52.044;8.716;2024-02-21T13:02:40;5.95;;;2.20;;
22543;SDS011;11438;52.044;8.716;2024-02-21T13:05:06;7.18;;;2.65;;
22543;SDS011;11438;52.044;8.716;2024-02-21T13:07:32;6.15;;;2.22;;
22543;SDS011;11438;52.044;8.716;2024-02-21T13:09:58;7.57;;;2.35;;
22543;SDS011;11438;52.044;8.716;2024-02-21T13:12:23;7.05;;;2.50;;
22543;SDS011;11438;52.044;8.716;2024-02-21T13:14:51;5.38;;;2.15;;
22543;SDS011;11438;52.044;8.716;2024-02-21T13:17:16;10.07;;;2.92;;
22543;SDS011;11438;52.044;8.716;2024-02-21T13:19:42;5.35;;;2.20;;
22543;SDS011;11438;52.044;8.716;2024-02-21T13:22:07;7.03;;;2.20;;
22543;SDS011;11438;52.044;8.716;2024-02-21T13:24:33;6.07;;;2.45;;
22543;SDS011;11438;52.044;8.716;2024-02-21T13:26:58;5.90;;;2.40;;
22543;SDS011;11438;52.044;8.716;2024-02-21T13:29:24;7.00;;;2.50;;
22543;SDS011;11438;52.044;8.716;2024-02-21T13:31:49;5.50;;;2.67;;
22543;SDS011;11438;52.044;8.716;2024-02-21T13:34:15;8.00;;;2.45;;
22543;SDS011;11438;52.044;8.716;2024-02-21T13:36:42;7.53;;;2.08;;
22543;SDS011;11438;52.044;8.716;2024-02-21T13:39:07;7.72;;;2.58;;
22543;SDS011;11438;52.044;8.716;2024-02-21T13:41:33;5.05;;;2.47;;
22543;SDS011;11438;52.044;8.716;2024-02-21T13:43:59;7.38;;;2.30;;
22543;SDS011;11438;52.044;8.716;2024-02-21T13:46:28;5.43;;;2.28;;
22543;SDS011;11438;52.044;8.716;2024-02-21T13:48:54;6.55;;;2.55;;
22543;SDS011;11438;52.044;8.716;2024-02-21T13:51:32;7.43;;;2.72;;
22543;SDS011;11438;52.044;8.716;2024-02-21T13:54:01;8.00;;;2.92;;
22543;SDS011;11438;52.044;8.716;2024-02-21T13:56:29;5.18;;;2.05;;
22543;SDS011;11438;52.044;8.716;2024-02-21T13:58:54;5.78;;;2.17;;
22543;SDS011;11438;52.044;8.716;2024-02-21T14:01:20;7.00;;;3.10;;
22543;SDS011;11438;52.044;8.716;2024-02-21T14:03:45;6.50;;;2.83;;
22543;SDS011;11438;52.044;8.716;2024-02-21T14:06:11;5.07;;;2.22;;
22543;SDS011;11438;52.044;8.716;2024-02-21T14:08:36;5.20;;;2.20;;
22543;SDS011;11438;52.044;8.716;2024-02-21T14:11:04;5.47;;;2.10;;
22543;SDS011;11438;52.044;8.716;2024-02-21T14:13:31;7.45;;;2.42;;
22543;SDS011;11438;52.044;8.716;2024-02-21T14:15:56;6.05;;;2.17;;
22543;SDS011;11438;52.044;8.716;2024-02-21T14:18:22;4.88;;;2.28;;
22543;SDS011;11438;52.044;8.716;2024-02-21T14:20:47;5.63;;;1.98;;
22543;SDS011;11438;52.044;8.716;2024-02-21T14:23:13;5.35;;;1.70;;
22543;SDS011;11438;52.044;8.716;2024-02-21T14:25:38;8.65;;;2.25;;
22543;SDS011;11438;52.044;8.716;2024-02-21T14:28:04;4.50;;;1.70;;
22543;SDS011;11438;52.044;8.716;2024-02-21T14:30:30;5.97;;;2.05;;
22543;SDS011;11438;52.044;8.716;2024-02-21T14:32:56;4.78;;;1.60;;
22543;SDS011;11438;52.044;8.716;2024-02-21T14:35:21;6.88;;;1.83;;
22543;SDS011;11438;52.044;8.716;2024-02-21T14:37:47;5.40;;;1.42;;
22543;SDS011;11438;52.044;8.716;2024-02-21T14:40:14;4.13;;;1.70;;
22543;SDS011;11438;52.044;8.716;2024-02-21T14:42:39;4.03;;;1.67;;
22543;SDS011;11438;52.044;8.716;2024-02-21T14:45:05;3.20;;;1.50;;